Time;durP1;ratioP1;P1;durP2;ratioP2;P2;SDS_P1;SDS_P2;PMS_P1;PMS_P2;Temp;Humidity;BMP_temperature;BMP_pressure;BME280_temperature;BME280_humidity;BME280_pressure;Samples;Min_cycle;Max_cycle;Signal;HPM_P1;HPM_P2
2022/10/21 00:00:37;;;;;;;24.67;14.57;;;;;;;;;;4987040;28;20038;-71
2022/10/21 00:03:03;;;;;;;21.25;14.82;;;;;;;;;;4986473;28;20076;-71
2022/10/21 00:05:29;;;;;;;21.35;13.43;;;;;;;;;;4988313;28;20050;-71
2022/10/21 00:07:54;;;;;;;24.08;15.35;;;;;;;;;;4988200;28;20038;-70
2022/10/21 00:10:20;;;;;;;21.27;13.95;;;;;;;;;;4986850;28;20046;-70
2022/10/21 00:12:45;;;;;;;17.58;13.05;;;;;;;;;;4988002;28;21235;-71
2022/10/21 00:15:11;;;;;;;18.08;14.25;;;;;;;;;;4988595;28;20031;-71
2022/10/21 00:17:39;;;;;;;17.50;12.75;;;;;;;;;;4989990;28;20038;-71
2022/10/21 00:20:07;;;;;;;22.75;12.63;;;;;;;;;;4987194;28;20701;-71
2022/10/21 00:22:33;;;;;;;20.58;13.05;;;;;;;;;;4987755;28;20070;-71
2022/10/21 00:24:59;;;;;;;19.35;13.85;;;;;;;;;;4988420;28;20520;-70
2022/10/21 00:27:24;;;;;;;17.80;12.82;;;;;;;;;;4988570;28;20101;-71
2022/10/21 00:29:50;;;;;;;19.30;13.77;;;;;;;;;;4985807;28;20117;-70
2022/10/21 00:32:16;;;;;;;24.17;14.73;;;;;;;;;;4987519;28;20045;-70
2022/10/21 00:34:42;;;;;;;25.15;14.77;;;;;;;;;;4987000;28;20030;-71
2022/10/21 00:37:09;;;;;;;25.88;16.25;;;;;;;;;;4987869;28;20050;-71
2022/10/21 00:39:36;;;;;;;24.63;16.42;;;;;;;;;;4985870;28;20034;-70
2022/10/21 00:42:03;;;;;;;25.77;16.08;;;;;;;;;;4986838;28;20122;-71
2022/10/21 00:44:29;;;;;;;31.38;16.88;;;;;;;;;;4987451;28;20038;-70
2022/10/21 00:47:00;;;;;;;35.53;16.00;;;;;;;;;;4987833;28;20066;-71
2022/10/21 00:49:43;;;;;;;26.63;15.40;;;;;;;;;;4986216;28;20121;-69
2022/10/21 00:52:17;;;;;;;28.20;16.73;;;;;;;;;;4987677;28;20068;-69
2022/10/21 00:54:44;;;;;;;31.50;16.98;;;;;;;;;;4985995;28;20429;-70
2022/10/21 00:57:10;;;;;;;27.67;17.00;;;;;;;;;;4986337;28;20121;-70
2022/10/21 00:59:41;;;;;;;27.13;16.98;;;;;;;;;;4985496;28;20112;-71
2022/10/21 01:02:07;;;;;;;31.92;16.65;;;;;;;;;;4986692;28;20035;-71
2022/10/21 01:04:33;;;;;;;27.17;16.33;;;;;;;;;;4987804;28;20036;-71
2022/10/21 01:06:59;;;;;;;32.53;17.27;;;;;;;;;;4985878;28;20405;-71
2022/10/21 01:09:25;;;;;;;33.38;17.58;;;;;;;;;;4987754;28;20096;-71
2022/10/21 01:11:51;;;;;;;29.30;16.95;;;;;;;;;;4987344;28;20042;-71
2022/10/21 01:14:21;;;;;;;27.40;16.88;;;;;;;;;;4985922;28;20030;-71
2022/10/21 01:17:13;;;;;;;34.88;18.48;;;;;;;;;;4987393;28;20482;-71
2022/10/21 01:19:41;;;;;;;28.75;17.90;;;;;;;;;;4985265;28;20045;-70
2022/10/21 01:22:37;;;;;;;32.08;17.92;;;;;;;;;;4987345;28;20058;-69
2022/10/21 01:25:24;;;;;;;30.98;17.45;;;;;;;;;;4986978;28;20109;-71
2022/10/21 01:28:16;;;;;;;29.40;17.05;;;;;;;;;;4987658;28;20053;-70
2022/10/21 01:30:49;;;;;;;30.48;17.48;;;;;;;;;;4987721;28;20038;-71
2022/10/21 01:33:38;;;;;;;24.73;16.00;;;;;;;;;;4986181;28;20125;-71
2022/10/21 01:36:32;;;;;;;31.27;17.38;;;;;;;;;;4987932;28;20049;-71
2022/10/21 01:39:06;;;;;;;28.10;15.95;;;;;;;;;;4988246;28;20089;-71
2022/10/21 01:41:40;;;;;;;25.73;16.50;;;;;;;;;;4985348;28;20038;-72
2022/10/21 01:44:19;;;;;;;29.95;17.30;;;;;;;;;;4986014;28;20034;-71
2022/10/21 01:46:50;;;;;;;;;;;;;;;;;;4987999;28;20627;-72
2022/10/21 01:49:48;;;;;;;30.05;17.77;;;;;;;;;;4984765;28;19921;-70
2022/10/21 01:52:15;;;;;;;34.58;18.38;;;;;;;;;;4986852;28;20034;-69
2022/10/21 01:54:51;;;;;;;38.63;18.95;;;;;;;;;;4989134;28;20547;-71
2022/10/21 01:57:19;;;;;;;36.58;19.17;;;;;;;;;;4987999;28;20068;-70
2022/10/21 01:59:46;;;;;;;37.83;19.63;;;;;;;;;;4988765;28;20097;-70
2022/10/21 02:02:14;;;;;;;45.63;21.40;;;;;;;;;;4989074;28;20490;-71
2022/10/21 02:04:41;;;;;;;56.03;24.05;;;;;;;;;;4989817;28;20121;-71
2022/10/21 02:07:07;;;;;;;48.70;25.10;;;;;;;;;;4988537;28;20066;-71
2022/10/21 02:09:33;;;;;;;52.33;23.77;;;;;;;;;;4990462;28;20042;-69
2022/10/21 02:12:01;;;;;;;49.70;23.98;;;;;;;;;;4980463;28;20030;-70
2022/10/21 02:14:35;;;;;;;53.03;25.38;;;;;;;;;;4989091;28;20026;-72
2022/10/21 02:17:01;;;;;;;45.97;23.67;;;;;;;;;;4989737;28;20113;-73
2022/10/21 02:19:27;;;;;;;56.65;24.33;;;;;;;;;;4990485;28;20041;-73
2022/10/21 02:21:56;;;;;;;45.63;23.75;;;;;;;;;;4987821;28;20046;-71
2022/10/21 02:24:35;;;;;;;42.88;21.48;;;;;;;;;;4989864;28;20077;-72
2022/10/21 02:27:00;;;;;;;36.00;20.15;;;;;;;;;;4988032;28;20038;-72
2022/10/21 02:29:31;;;;;;;34.78;19.55;;;;;;;;;;4989681;28;20034;-73
2022/10/21 02:32:06;;;;;;;34.15;19.67;;;;;;;;;;4986883;28;20148;-72
2022/10/21 02:35:02;;;;;;;33.35;19.00;;;;;;;;;;4989486;28;20057;-71
2022/10/21 02:37:45;;;;;;;34.58;20.70;;;;;;;;;;4989435;28;20042;-71
2022/10/21 02:40:17;;;;;;;34.95;20.73;;;;;;;;;;4988763;28;20043;-72
2022/10/21 02:42:46;;;;;;;36.10;21.52;;;;;;;;;;4989302;28;20042;-71
2022/10/21 02:45:12;;;;;;;;;;;;;;;;;;4989903;28;20672;-72
2022/10/21 02:47:39;;;;;;;42.03;21.85;;;;;;;;;;4989289;28;20231;-72
2022/10/21 02:50:05;;;;;;;34.72;20.13;;;;;;;;;;4988179;28;20094;-71
2022/10/21 02:52:31;;;;;;;34.50;21.35;;;;;;;;;;4987779;28;20038;-72
2022/10/21 02:54:56;;;;;;;32.95;19.70;;;;;;;;;;4988551;28;20026;-72
2022/10/21 02:57:22;;;;;;;37.47;20.83;;;;;;;;;;4990551;28;20053;-71
2022/10/21 02:59:47;;;;;;;31.35;18.05;;;;;;;;;;4990689;28;20038;-72
2022/10/21 03:02:13;;;;;;;36.40;19.38;;;;;;;;;;4986542;28;20145;-71
2022/10/21 03:04:39;;;;;;;25.83;17.50;;;;;;;;;;4988707;28;20030;-72
2022/10/21 03:07:04;;;;;;;28.90;17.98;;;;;;;;;;4988989;28;20044;-71
2022/10/21 03:09:30;;;;;;;29.55;17.58;;;;;;;;;;4989429;28;20041;-73
2022/10/21 03:11:55;;;;;;;27.63;17.13;;;;;;;;;;4986108;28;20042;-72
2022/10/21 03:14:21;;;;;;;26.42;17.10;;;;;;;;;;4989403;28;20026;-71
2022/10/21 03:16:46;;;;;;;35.95;18.40;;;;;;;;;;4987202;28;20044;-72
2022/10/21 03:19:12;;;;;;;22.92;16.50;;;;;;;;;;4989892;28;20045;-72
2022/10/21 03:21:38;;;;;;;26.63;16.77;;;;;;;;;;4989071;28;20026;-71
2022/10/21 03:24:04;;;;;;;26.05;16.08;;;;;;;;;;4989067;28;20033;-70
2022/10/21 03:26:29;;;;;;;30.45;18.23;;;;;;;;;;4988466;28;20042;-72
2022/10/21 03:28:55;;;;;;;30.98;18.77;;;;;;;;;;4989390;28;20034;-72
2022/10/21 03:31:20;;;;;;;35.55;18.13;;;;;;;;;;4989801;28;20038;-72
2022/10/21 03:33:46;;;;;;;27.48;16.17;;;;;;;;;;4988661;28;20038;-71
2022/10/21 03:36:11;;;;;;;17.63;13.77;;;;;;;;;;4998125;28;20026;-69
2022/10/21 03:38:37;;;;;;;41.47;20.02;;;;;;;;;;4990725;28;20046;-72
2022/10/21 03:41:02;;;;;;;29.88;19.40;;;;;;;;;;4987993;28;20038;-71
2022/10/21 03:43:28;;;;;;;36.30;19.35;;;;;;;;;;4988647;28;20041;-70
2022/10/21 03:45:53;;;;;;;31.17;18.77;;;;;;;;;;4988785;28;20072;-71
2022/10/21 03:48:19;;;;;;;31.30;19.58;;;;;;;;;;4988885;28;20049;-72
2022/10/21 03:50:45;;;;;;;27.70;18.50;;;;;;;;;;4987153;28;20034;-71
2022/10/21 03:53:10;;;;;;;33.05;20.20;;;;;;;;;;4988346;28;20037;-71
2022/10/21 03:55:36;;;;;;;31.23;19.65;;;;;;;;;;4988698;28;20091;-72
2022/10/21 03:58:02;;;;;;;34.13;17.92;;;;;;;;;;4988819;28;20034;-72
2022/10/21 04:00:27;;;;;;;26.23;16.95;;;;;;;;;;4985862;28;20092;-71
2022/10/21 04:02:53;;;;;;;35.65;17.90;;;;;;;;;;4989192;28;20042;-71
2022/10/21 04:05:18;;;;;;;32.25;19.25;;;;;;;;;;4988554;28;20066;-71
2022/10/21 04:07:44;;;;;;;28.60;17.73;;;;;;;;;;4989110;28;20046;-72
2022/10/21 04:10:10;;;;;;;29.45;17.77;;;;;;;;;;4981632;28;20049;-71
2022/10/21 04:12:35;;;;;;;29.20;17.40;;;;;;;;;;4987172;28;20038;-72
2022/10/21 04:15:01;;;;;;;26.17;17.70;;;;;;;;;;4988014;28;20037;-72
2022/10/21 04:17:27;;;;;;;27.58;18.05;;;;;;;;;;4987586;28;20116;-71
2022/10/21 04:19:52;;;;;;;33.35;18.10;;;;;;;;;;4986628;28;20113;-72
2022/10/21 04:22:18;;;;;;;32.08;17.70;;;;;;;;;;4983394;28;20034;-72
2022/10/21 04:24:43;;;;;;;29.42;17.65;;;;;;;;;;4987292;28;20088;-71
2022/10/21 04:27:09;;;;;;;30.42;18.08;;;;;;;;;;4988245;28;20153;-71
2022/10/21 04:29:34;;;;;;;33.05;17.98;;;;;;;;;;4985304;28;20040;-71
2022/10/21 04:32:00;;;;;;;40.72;18.83;;;;;;;;;;4987505;28;20052;-72
2022/10/21 04:34:26;;;;;;;38.20;19.80;;;;;;;;;;4986833;28;20038;-71
2022/10/21 04:36:51;;;;;;;30.23;19.15;;;;;;;;;;4986087;28;20402;-72
2022/10/21 04:39:17;;;;;;;30.48;19.77;;;;;;;;;;4988000;28;20571;-70
2022/10/21 04:41:44;;;;;;;36.83;19.90;;;;;;;;;;4987982;28;20045;-71
2022/10/21 04:44:10;;;;;;;29.55;19.38;;;;;;;;;;4988159;28;20109;-71
2022/10/21 04:46:36;;;;;;;33.25;19.08;;;;;;;;;;4985249;28;20078;-71
2022/10/21 04:49:01;;;;;;;37.38;20.35;;;;;;;;;;4988532;28;20038;-71
2022/10/21 04:51:27;;;;;;;40.22;20.10;;;;;;;;;;4988161;28;20400;-71
2022/10/21 04:53:53;;;;;;;32.95;19.00;;;;;;;;;;4988257;28;20107;-71
2022/10/21 04:56:18;;;;;;;36.80;18.45;;;;;;;;;;4985563;28;20038;-71
2022/10/21 04:58:44;;;;;;;26.08;16.98;;;;;;;;;;4988848;28;20038;-71
2022/10/21 05:01:09;;;;;;;27.40;16.85;;;;;;;;;;4988167;28;20038;-70
2022/10/21 05:03:35;;;;;;;30.45;17.30;;;;;;;;;;4986127;28;20046;-71
2022/10/21 05:06:00;;;;;;;26.42;17.73;;;;;;;;;;4990098;28;20046;-71
2022/10/21 05:08:26;;;;;;;26.15;17.15;;;;;;;;;;4990468;28;20042;-71
2022/10/21 05:10:59;;;;;;;25.30;17.48;;;;;;;;;;4989299;28;20050;-70
2022/10/21 05:13:25;;;;;;;25.90;18.95;;;;;;;;;;4990512;28;20054;-72
2022/10/21 05:15:51;;;;;;;28.08;18.23;;;;;;;;;;4989541;28;20038;-71
2022/10/21 05:18:16;;;;;;;31.90;17.38;;;;;;;;;;4989094;28;20402;-72
2022/10/21 05:20:48;;;;;;;24.15;16.65;;;;;;;;;;4988049;28;20042;-70
2022/10/21 05:23:13;;;;;;;27.05;18.77;;;;;;;;;;4988859;28;20030;-72
2022/10/21 05:25:39;;;;;;;50.75;30.35;;;;;;;;;;4985611;28;20037;-71
2022/10/21 05:28:05;;;;;;;36.78;21.40;;;;;;;;;;4987508;28;20042;-72
2022/10/21 05:30:30;;;;;;;27.30;18.50;;;;;;;;;;4992075;28;20038;-71
2022/10/21 05:32:56;;;;;;;32.25;16.95;;;;;;;;;;4992122;28;20088;-72
2022/10/21 05:35:21;;;;;;;26.58;18.02;;;;;;;;;;4990407;28;20034;-71
2022/10/21 05:37:47;;;;;;;32.65;18.50;;;;;;;;;;4991110;28;20049;-72
2022/10/21 05:40:13;;;;;;;34.97;20.02;;;;;;;;;;4989981;28;20065;-71
2022/10/21 05:42:38;;;;;;;31.85;20.45;;;;;;;;;;4983123;28;20045;-72
2022/10/21 05:45:04;;;;;;;32.88;20.80;;;;;;;;;;4989900;28;20034;-72
2022/10/21 05:47:30;;;;;;;25.20;17.02;;;;;;;;;;4990767;28;20042;-70
2022/10/21 05:49:55;;;;;;;30.45;19.15;;;;;;;;;;4990987;28;20045;-72
2022/10/21 05:52:21;;;;;;;32.70;18.10;;;;;;;;;;4991420;28;20053;-70
2022/10/21 05:54:47;;;;;;;27.40;18.40;;;;;;;;;;4987644;28;20034;-70
2022/10/21 05:57:12;;;;;;;23.95;16.17;;;;;;;;;;4990271;28;20393;-71
2022/10/21 05:59:38;;;;;;;23.63;16.58;;;;;;;;;;4991023;28;20034;-72
2022/10/21 06:02:03;;;;;;;24.27;16.33;;;;;;;;;;4988011;28;20041;-70
2022/10/21 06:04:29;;;;;;;24.88;15.38;;;;;;;;;;4990332;28;20030;-71
2022/10/21 06:06:55;;;;;;;19.73;16.13;;;;;;;;;;4990814;28;20573;-70
2022/10/21 06:09:20;;;;;;;34.47;17.20;;;;;;;;;;4991590;28;20537;-71
2022/10/21 06:11:46;;;;;;;24.08;16.08;;;;;;;;;;4989367;28;20493;-71
2022/10/21 06:14:11;;;;;;;24.30;16.10;;;;;;;;;;4990899;28;20022;-71
2022/10/21 06:16:37;;;;;;;28.05;15.88;;;;;;;;;;4991402;28;20053;-72
2022/10/21 06:19:02;;;;;;;26.77;17.33;;;;;;;;;;4991472;28;20066;-70
2022/10/21 06:21:28;;;;;;;33.55;16.27;;;;;;;;;;4989675;28;20057;-72
2022/10/21 06:23:54;;;;;;;24.77;16.98;;;;;;;;;;4991401;28;20081;-71
2022/10/21 06:26:20;;;;;;;28.50;17.80;;;;;;;;;;4991734;28;20041;-69
2022/10/21 06:28:45;;;;;;;31.27;17.73;;;;;;;;;;4989843;28;20034;-69
2022/10/21 06:31:14;;;;;;;26.98;17.63;;;;;;;;;;4990551;28;20096;-70
2022/10/21 06:33:40;;;;;;;29.40;17.08;;;;;;;;;;5000905;28;20030;-69
2022/10/21 06:36:06;;;;;;;33.20;19.13;;;;;;;;;;4991174;28;20080;-70
2022/10/21 06:38:32;;;;;;;26.27;17.02;;;;;;;;;;4989270;28;20030;-70
2022/10/21 06:41:02;;;;;;;24.90;17.48;;;;;;;;;;4989073;28;20565;-70
2022/10/21 06:43:28;;;;;;;32.22;18.42;;;;;;;;;;4990870;28;20125;-70
2022/10/21 06:46:04;;;;;;;30.88;16.85;;;;;;;;;;4988851;28;20121;-70
2022/10/21 06:48:30;;;;;;;27.17;17.25;;;;;;;;;;4986930;28;20049;-70
2022/10/21 06:51:01;;;;;;;26.42;17.73;;;;;;;;;;4989525;28;20042;-70
2022/10/21 06:53:27;;;;;;;24.45;18.00;;;;;;;;;;4993387;28;20085;-70
2022/10/21 06:56:04;;;;;;;25.23;17.88;;;;;;;;;;4987723;28;20033;-70
2022/10/21 06:58:30;;;;;;;27.67;16.50;;;;;;;;;;4986267;28;20526;-70
2022/10/21 07:00:56;;;;;;;25.88;16.40;;;;;;;;;;4989926;28;20034;-70
2022/10/21 07:03:22;;;;;;;29.38;17.25;;;;;;;;;;4988808;28;20041;-70
2022/10/21 07:05:48;;;;;;;24.38;16.88;;;;;;;;;;4989131;28;20026;-70
2022/10/21 07:08:14;;;;;;;24.92;17.15;;;;;;;;;;4989953;28;20046;-70
2022/10/21 07:10:43;;;;;;;20.75;15.80;;;;;;;;;;4989535;28;20034;-70
2022/10/21 07:13:10;;;;;;;23.15;17.42;;;;;;;;;;4987674;28;20056;-69
2022/10/21 07:15:36;;;;;;;18.98;15.23;;;;;;;;;;4989276;28;20109;-70
2022/10/21 07:18:02;;;;;;;19.23;16.35;;;;;;;;;;4989968;28;20173;-70
2022/10/21 07:20:28;;;;;;;19.50;15.82;;;;;;;;;;4987823;28;20042;-70
2022/10/21 07:22:54;;;;;;;20.13;16.02;;;;;;;;;;4989342;28;20030;-69
2022/10/21 07:25:19;;;;;;;17.13;14.73;;;;;;;;;;4989979;28;20034;-70
2022/10/21 07:27:47;;;;;;;20.38;14.77;;;;;;;;;;4987590;28;20419;-70
2022/10/21 07:30:13;;;;;;;19.83;15.52;;;;;;;;;;5000424;28;20497;-71
2022/10/21 07:32:38;;;;;;;21.85;15.45;;;;;;;;;;4989179;28;20533;-71
2022/10/21 07:35:05;;;;;;;22.00;15.40;;;;;;;;;;4989319;28;20114;-70
2022/10/21 07:37:30;;;;;;;22.17;15.23;;;;;;;;;;4988249;28;20062;-70
2022/10/21 07:39:56;;;;;;;15.50;13.60;;;;;;;;;;4988833;28;20119;-70
2022/10/21 07:42:23;;;;;;;18.30;13.82;;;;;;;;;;4988852;28;20034;-70
2022/10/21 07:44:52;;;;;;;23.90;16.08;;;;;;;;;;4987957;28;20084;-70
2022/10/21 07:47:18;;;;;;;23.35;15.13;;;;;;;;;;4988429;28;20030;-70
2022/10/21 07:49:43;;;;;;;15.80;13.88;;;;;;;;;;4989137;28;20089;-70
2022/10/21 07:52:09;;;;;;;25.00;15.38;;;;;;;;;;4988759;28;20615;-70
2022/10/21 07:54:35;;;;;;;21.85;16.08;;;;;;;;;;4987629;28;20033;-70
2022/10/21 07:57:00;;;;;;;24.73;15.30;;;;;;;;;;4989110;28;20041;-71
2022/10/21 07:59:26;;;;;;;27.30;16.08;;;;;;;;;;4994583;28;20429;-71
2022/10/21 08:01:51;;;;;;;21.27;14.27;;;;;;;;;;4990765;28;20498;-70
2022/10/21 08:04:18;;;;;;;16.23;13.40;;;;;;;;;;4990500;28;20087;-70
2022/10/21 08:06:46;;;;;;;16.30;13.55;;;;;;;;;;4994212;28;20046;-71
2022/10/21 08:09:13;;;;;;;17.05;13.77;;;;;;;;;;5001572;28;20036;-71
2022/10/21 08:11:39;;;;;;;18.20;16.10;;;;;;;;;;4996879;28;20401;-70
2022/10/21 08:14:06;;;;;;;26.95;18.48;;;;;;;;;;4993617;28;20084;-71
2022/10/21 08:16:32;;;;;;;28.73;17.50;;;;;;;;;;4997078;28;20493;-71
2022/10/21 08:19:01;;;;;;;18.20;13.43;;;;;;;;;;4986677;28;20034;-71
2022/10/21 08:21:27;;;;;;;23.23;19.35;;;;;;;;;;4998871;28;20033;-71
2022/10/21 08:23:53;;;;;;;160.57;19.55;;;;;;;;;;4993919;28;20049;-71
2022/10/21 08:26:19;;;;;;;51.13;19.45;;;;;;;;;;4992487;28;20038;-70
2022/10/21 08:28:44;;;;;;;19.17;15.00;;;;;;;;;;4987940;28;20485;-71
2022/10/21 08:31:13;;;;;;;22.25;17.10;;;;;;;;;;4988258;28;20543;-71
2022/10/21 08:33:39;;;;;;;22.92;16.10;;;;;;;;;;4988203;28;20036;-71
2022/10/21 08:36:07;;;;;;;22.08;16.85;;;;;;;;;;4987983;28;20034;-70
2022/10/21 08:38:33;;;;;;;23.55;16.08;;;;;;;;;;4988359;28;20030;-70
2022/10/21 08:40:59;;;;;;;28.52;16.10;;;;;;;;;;4988547;28;20030;-71
2022/10/21 08:43:31;;;;;;;29.90;18.13;;;;;;;;;;4988580;28;20038;-71
2022/10/21 08:46:21;;;;;;;25.92;16.13;;;;;;;;;;4987126;28;20062;-70
2022/10/21 08:49:01;;;;;;;18.42;14.70;;;;;;;;;;4986902;28;20094;-71
2022/10/21 08:51:32;;;;;;;27.77;16.58;;;;;;;;;;4988306;28;20121;-70
2022/10/21 08:54:03;;;;;;;27.77;17.55;;;;;;;;;;4982500;28;20019;-70
2022/10/21 08:56:30;;;;;;;24.08;16.20;;;;;;;;;;4983408;28;20049;-71
2022/10/21 08:58:57;;;;;;;21.95;16.33;;;;;;;;;;4988105;28;20035;-71
2022/10/21 09:01:50;;;;;;;20.73;14.10;;;;;;;;;;4988430;28;20387;-71
2022/10/21 09:04:26;;;;;;;31.73;16.40;;;;;;;;;;4983977;28;20038;-71
2022/10/21 09:06:52;;;;;;;40.20;26.90;;;;;;;;;;4992548;28;20097;-71
2022/10/21 09:09:22;;;;;;;27.50;17.75;;;;;;;;;;4992387;28;20038;-71
2022/10/21 09:12:03;;;;;;;26.00;17.77;;;;;;;;;;4990753;28;20034;-71
2022/10/21 09:14:49;;;;;;;31.08;17.33;;;;;;;;;;4990968;28;20385;-71
2022/10/21 09:17:33;;;;;;;26.95;18.83;;;;;;;;;;4991032;28;20030;-70
2022/10/21 09:20:07;;;;;;;22.42;15.52;;;;;;;;;;4991405;28;20137;-71
2022/10/21 09:22:46;;;;;;;25.38;14.50;;;;;;;;;;4988974;28;20034;-70
2022/10/21 09:25:18;;;;;;;23.02;15.13;;;;;;;;;;4991829;28;20504;-70
2022/10/21 09:27:44;;;;;;;25.30;15.80;;;;;;;;;;4990425;28;20410;-71
2022/10/21 09:30:16;;;;;;;22.65;15.07;;;;;;;;;;4990955;28;20041;-71
2022/10/21 09:32:49;;;;;;;20.60;14.95;;;;;;;;;;4991224;28;20046;-70
2022/10/21 09:35:39;;;;;;;19.05;14.00;;;;;;;;;;4992171;28;20548;-71
2022/10/21 09:38:27;;;;;;;23.75;14.85;;;;;;;;;;4991970;28;20034;-70
2022/10/21 09:41:02;;;;;;;22.73;14.60;;;;;;;;;;4991405;28;20040;-71
2022/10/21 09:43:28;;;;;;;24.90;14.98;;;;;;;;;;4987671;28;20045;-71
2022/10/21 09:45:54;;;;;;;19.77;14.82;;;;;;;;;;4991695;28;20692;-71
2022/10/21 09:48:35;;;;;;;21.50;13.82;;;;;;;;;;4990885;28;20046;-71
2022/10/21 09:51:08;;;;;;;18.23;13.35;;;;;;;;;;4990846;28;20528;-71
2022/10/21 09:53:57;;;;;;;20.50;13.60;;;;;;;;;;4992051;28;20038;-72
2022/10/21 09:56:26;;;;;;;16.05;13.27;;;;;;;;;;4988869;28;20114;-72
2022/10/21 09:59:10;;;;;;;18.75;13.02;;;;;;;;;;4989900;28;20766;-72
2022/10/21 10:01:38;;;;;;;17.10;12.95;;;;;;;;;;4988559;28;20057;-72
2022/10/21 10:04:20;;;;;;;17.15;12.75;;;;;;;;;;4991434;28;20547;-72
2022/10/21 10:06:46;;;;;;;14.18;12.48;;;;;;;;;;4991079;28;20050;-72
2022/10/21 10:09:14;;;;;;;13.18;11.85;;;;;;;;;;4991118;28;20041;-72
2022/10/21 10:11:56;;;;;;;16.13;12.13;;;;;;;;;;4991302;28;20405;-72
2022/10/21 10:14:34;;;;;;;16.90;11.80;;;;;;;;;;4991209;28;20406;-72
2022/10/21 10:17:29;;;;;;;13.45;10.80;;;;;;;;;;4990788;28;20026;-72
2022/10/21 10:20:14;;;;;;;14.75;11.27;;;;;;;;;;4990817;28;20031;-72
2022/10/21 10:22:42;;;;;;;20.42;12.60;;;;;;;;;;4991324;28;20109;-72
2022/10/21 10:25:07;;;;;;;12.57;11.25;;;;;;;;;;4990272;28;20045;-72
2022/10/21 10:27:33;;;;;;;11.48;10.38;;;;;;;;;;4991115;28;20046;-72
2022/10/21 10:30:00;;;;;;;14.13;10.02;;;;;;;;;;4991065;28;20049;-72
2022/10/21 10:32:31;;;;;;;10.93;9.40;;;;;;;;;;4991016;28;20127;-72
2022/10/21 10:35:01;;;;;;;15.20;9.48;;;;;;;;;;4989083;28;20026;-72
2022/10/21 10:37:32;;;;;;;15.35;9.88;;;;;;;;;;4990471;28;20110;-72
2022/10/21 10:39:59;;;;;;;12.38;9.57;;;;;;;;;;4990632;28;20321;-72
2022/10/21 10:42:36;;;;;;;15.15;11.07;;;;;;;;;;4990406;28;20080;-72
2022/10/21 10:45:13;;;;;;;20.27;13.25;;;;;;;;;;4992928;28;20030;-72
2022/10/21 10:47:46;;;;;;;14.30;10.50;;;;;;;;;;4990288;28;20054;-72
2022/10/21 10:50:37;;;;;;;10.70;9.70;;;;;;;;;;4992012;28;20062;-72
2022/10/21 10:53:31;;;;;;;10.18;9.20;;;;;;;;;;4990982;28;20676;-71
2022/10/21 10:56:25;;;;;;;10.63;8.98;;;;;;;;;;4989359;28;20027;-71
2022/10/21 10:59:08;;;;;;;11.45;8.80;;;;;;;;;;4989212;28;20042;-72
2022/10/21 11:01:40;;;;;;;9.98;8.95;;;;;;;;;;4989173;28;20085;-71
2022/10/21 11:04:15;;;;;;;10.32;8.80;;;;;;;;;;4989244;28;20117;-72
2022/10/21 11:06:51;;;;;;;9.63;8.65;;;;;;;;;;4989474;28;20066;-71
2022/10/21 11:09:18;;;;;;;12.70;8.57;;;;;;;;;;4987526;28;20066;-71
2022/10/21 11:11:47;;;;;;;9.23;8.43;;;;;;;;;;4986862;28;20054;-71
2022/10/21 11:14:14;;;;;;;8.90;8.00;;;;;;;;;;4987546;28;20030;-71
2022/10/21 11:16:56;;;;;;;8.68;7.78;;;;;;;;;;4988230;28;20053;-72
2022/10/21 11:19:28;;;;;;;11.90;8.20;;;;;;;;;;4988609;28;20085;-72
2022/10/21 11:22:15;;;;;;;9.15;8.27;;;;;;;;;;4987128;28;20037;-72
2022/10/21 11:25:04;;;;;;;9.13;8.23;;;;;;;;;;4985005;28;20026;-72
2022/10/21 11:27:56;;;;;;;11.55;8.32;;;;;;;;;;4982218;28;20046;-72
2022/10/21 11:30:36;;;;;;;8.40;7.60;;;;;;;;;;4988766;28;20038;-72
2022/10/21 11:33:29;;;;;;;9.27;8.27;;;;;;;;;;4989030;28;20035;-72
2022/10/21 11:35:58;;;;;;;12.20;8.18;;;;;;;;;;4988232;28;20037;-72
2022/10/21 11:38:42;;;;;;;11.75;8.32;;;;;;;;;;4988523;28;20038;-72
2022/10/21 11:41:31;;;;;;;9.00;8.20;;;;;;;;;;4988327;28;20053;-72
2022/10/21 11:44:18;;;;;;;8.68;7.97;;;;;;;;;;4986453;28;20035;-72
2022/10/21 11:47:07;;;;;;;11.00;8.50;;;;;;;;;;4983851;28;20034;-72
2022/10/21 11:49:54;;;;;;;8.40;7.72;;;;;;;;;;4976812;28;20049;-72
2022/10/21 11:52:28;;;;;;;8.38;7.60;;;;;;;;;;4985556;28;20042;-72
2022/10/21 11:55:24;;;;;;;8.75;7.97;;;;;;;;;;4986832;28;20378;-72
2022/10/21 11:58:03;;;;;;;10.02;8.10;;;;;;;;;;4968657;28;20039;-72
2022/10/21 12:00:38;;;;;;;9.43;8.00;;;;;;;;;;4983010;28;20042;-72
2022/10/21 12:03:24;;;;;;;8.13;7.53;;;;;;;;;;4985470;28;20092;-72
2022/10/21 12:06:00;;;;;;;8.05;7.43;;;;;;;;;;4987362;28;20046;-72
2022/10/21 12:08:38;;;;;;;9.25;8.55;;;;;;;;;;4983841;28;20038;-72
2022/10/21 12:11:11;;;;;;;8.48;7.88;;;;;;;;;;4985788;28;20034;-72
2022/10/21 12:14:18;;;;;;;8.30;7.55;;;;;;;;;;4987503;28;20042;-71
2022/10/21 12:16:45;;;;;;;9.23;8.27;;;;;;;;;;4945768;29;20122;-72
2022/10/21 12:19:12;;;;;;;9.65;8.70;;;;;;;;;;4977191;28;20041;-72
2022/10/21 12:21:43;;;;;;;8.52;7.90;;;;;;;;;;4986115;28;20096;-72
2022/10/21 12:24:39;;;;;;;9.57;7.57;;;;;;;;;;4987081;28;20038;-71
2022/10/21 12:27:22;;;;;;;7.57;7.03;;;;;;;;;;4971215;28;20050;-72
2022/10/21 12:29:59;;;;;;;8.52;7.72;;;;;;;;;;4985751;28;20046;-71
2022/10/21 12:32:40;;;;;;;8.57;7.90;;;;;;;;;;4987132;28;20101;-71
2022/10/21 12:35:11;;;;;;;9.98;8.32;;;;;;;;;;4986022;28;20026;-71
2022/10/21 12:38:04;;;;;;;8.80;7.93;;;;;;;;;;4986750;28;20042;-71
2022/10/21 12:40:31;;;;;;;8.40;7.70;;;;;;;;;;4967471;28;20075;-70
2022/10/21 12:43:19;;;;;;;8.25;7.55;;;;;;;;;;4984496;28;20501;-71
2022/10/21 12:45:46;;;;;;;8.17;7.57;;;;;;;;;;4985145;28;20367;-71
2022/10/21 12:48:43;;;;;;;7.72;7.22;;;;;;;;;;4986182;28;20096;-71
2022/10/21 12:51:22;;;;;;;7.95;7.35;;;;;;;;;;4985774;28;20057;-71
2022/10/21 12:54:05;;;;;;;8.60;7.80;;;;;;;;;;4985825;28;20070;-71
2022/10/21 12:56:36;;;;;;;8.50;7.93;;;;;;;;;;4981742;28;20497;-71
2022/10/21 12:59:05;;;;;;;8.82;7.90;;;;;;;;;;4983177;28;20065;-71
2022/10/21 13:01:41;;;;;;;7.97;7.32;;;;;;;;;;4984959;28;20030;-71
2022/10/21 13:04:32;;;;;;;8.65;7.72;;;;;;;;;;4984378;28;20536;-71
2022/10/21 13:07:04;;;;;;;8.50;7.78;;;;;;;;;;4986930;28;20054;-71
2022/10/21 13:09:49;;;;;;;8.63;7.82;;;;;;;;;;4987805;28;20034;-72
2022/10/21 13:12:23;;;;;;;8.43;7.93;;;;;;;;;;4986567;28;20133;-71
2022/10/21 13:14:50;;;;;;;9.10;8.20;;;;;;;;;;4987114;28;20498;-71
2022/10/21 13:17:22;;;;;;;8.68;7.97;;;;;;;;;;4987548;28;20087;-72
2022/10/21 13:19:52;;;;;;;8.73;7.95;;;;;;;;;;4986123;28;20458;-72
2022/10/21 13:22:21;;;;;;;8.70;8.10;;;;;;;;;;4987225;28;20034;-72
2022/10/21 13:24:48;;;;;;;8.63;8.00;;;;;;;;;;4987321;28;20683;-72
2022/10/21 13:27:27;;;;;;;8.48;7.78;;;;;;;;;;4987566;28;20038;-72
2022/10/21 13:29:53;;;;;;;8.43;7.72;;;;;;;;;;4987910;28;20093;-72
2022/10/21 13:32:20;;;;;;;8.60;7.95;;;;;;;;;;4987779;28;20116;-71
2022/10/21 13:35:01;;;;;;;8.40;7.80;;;;;;;;;;4986837;28;20161;-71
2022/10/21 13:37:33;;;;;;;8.88;8.18;;;;;;;;;;4985554;28;20045;-72
2022/10/21 13:40:06;;;;;;;9.13;8.32;;;;;;;;;;4987511;28;20034;-71
2022/10/21 13:42:40;;;;;;;8.63;8.02;;;;;;;;;;4980735;28;20049;-72
2022/10/21 13:45:26;;;;;;;9.60;8.68;;;;;;;;;;4982809;28;20035;-72
2022/10/21 13:48:03;;;;;;;9.15;8.40;;;;;;;;;;4987610;28;20092;-72
2022/10/21 13:50:37;;;;;;;8.68;8.07;;;;;;;;;;4988866;28;20030;-72
2022/10/21 13:53:28;;;;;;;8.93;8.30;;;;;;;;;;4990741;28;20068;-72
2022/10/21 13:56:01;;;;;;;9.05;8.30;;;;;;;;;;4990595;28;20031;-72
2022/10/21 13:58:29;;;;;;;8.90;8.30;;;;;;;;;;4990310;28;20508;-72
2022/10/21 14:00:54;;;;;;;8.55;7.95;;;;;;;;;;4989682;28;20034;-72
2022/10/21 14:03:23;;;;;;;9.02;8.20;;;;;;;;;;4989100;28;20037;-73
2022/10/21 14:05:57;;;;;;;9.10;8.30;;;;;;;;;;4990314;28;20502;-73
2022/10/21 14:08:32;;;;;;;8.80;8.20;;;;;;;;;;4990501;28;20122;-73
2022/10/21 14:11:02;;;;;;;12.00;8.27;;;;;;;;;;4988411;28;20046;-72
2022/10/21 14:13:35;;;;;;;8.50;7.90;;;;;;;;;;4984684;28;20034;-72
2022/10/21 14:16:02;;;;;;;8.48;7.88;;;;;;;;;;4990480;28;20134;-72
2022/10/21 14:18:37;;;;;;;8.30;7.80;;;;;;;;;;4988218;28;20516;-72
2022/10/21 14:21:04;;;;;;;9.07;8.27;;;;;;;;;;4989406;28;20097;-72
2022/10/21 14:23:30;;;;;;;8.52;8.02;;;;;;;;;;4990333;28;20038;-72
2022/10/21 14:26:03;;;;;;;8.82;8.20;;;;;;;;;;4989755;28;20045;-72
2022/10/21 14:28:29;;;;;;;8.95;8.10;;;;;;;;;;4990084;28;20122;-72
2022/10/21 14:30:55;;;;;;;8.40;7.90;;;;;;;;;;4990234;28;20133;-72
2022/10/21 14:33:24;;;;;;;8.73;8.13;;;;;;;;;;4990294;28;20121;-72
2022/10/21 14:36:17;;;;;;;8.85;8.25;;;;;;;;;;4990767;28;20648;-72
2022/10/21 14:38:54;;;;;;;7.78;7.30;;;;;;;;;;4987645;28;20042;-72
2022/10/21 14:41:33;;;;;;;8.68;7.95;;;;;;;;;;4984431;28;20046;-72
2022/10/21 14:44:29;;;;;;;8.68;8.07;;;;;;;;;;4986815;28;20042;-72
2022/10/21 14:46:55;;;;;;;8.48;7.75;;;;;;;;;;4981931;28;20528;-72